createdAt,value
2018-12-23T00:02:11.947Z,21.40
2018-12-23T00:04:39.416Z,25.83
2018-12-23T00:07:06.852Z,20.33
2018-12-23T00:09:34.458Z,24.37
2018-12-23T00:12:01.898Z,15.20
2018-12-23T00:14:29.330Z,22.87
2018-12-23T00:16:56.753Z,18.97
2018-12-23T00:19:24.194Z,22.93
2018-12-23T00:21:51.623Z,22.83
2018-12-23T00:24:19.047Z,23.27
2018-12-23T00:26:46.494Z,20.93
2018-12-23T00:29:14.085Z,20.77
2018-12-23T00:31:41.581Z,26.00
2018-12-23T00:34:09.064Z,23.87
2018-12-23T00:36:36.560Z,21.67
2018-12-23T00:39:05.933Z,29.70
2018-12-23T00:41:33.351Z,26.93
2018-12-23T00:44:01.070Z,22.43
2018-12-23T00:46:28.486Z,19.13
2018-12-23T00:48:55.935Z,19.33
2018-12-23T00:51:23.375Z,24.73
2018-12-23T00:53:50.848Z,25.50
2018-12-23T00:56:18.298Z,24.43
2018-12-23T00:58:45.756Z,26.93
2018-12-23T01:01:13.191Z,18.80
2018-12-23T01:03:40.645Z,28.67
2018-12-23T01:06:08.071Z,23.67
2018-12-23T01:08:35.492Z,23.73
2018-12-23T01:11:02.962Z,24.53
2018-12-23T01:13:30.390Z,26.90
2018-12-23T01:15:57.828Z,21.33
2018-12-23T01:18:25.270Z,25.03
2018-12-23T01:20:52.703Z,24.60
2018-12-23T01:23:20.246Z,32.07
2018-12-23T01:25:47.676Z,31.20
2018-12-23T01:28:15.326Z,30.10
2018-12-23T01:30:42.748Z,25.17
2018-12-23T01:33:10.211Z,27.90
2018-12-23T01:35:37.625Z,24.33
2018-12-23T01:38:05.070Z,35.77
2018-12-23T01:40:32.525Z,37.30
2018-12-23T01:42:59.938Z,24.60
2018-12-23T01:45:27.385Z,29.50
2018-12-23T01:47:54.830Z,27.33
2018-12-23T01:50:22.270Z,22.37
2018-12-23T01:52:49.678Z,25.73
2018-12-23T01:55:17.119Z,29.23
2018-12-23T01:57:44.597Z,25.43
2018-12-23T02:00:12.032Z,27.03
2018-12-23T02:02:39.466Z,23.83
2018-12-23T02:05:06.888Z,26.23
2018-12-23T02:07:34.340Z,27.13
2018-12-23T02:10:01.864Z,28.17
2018-12-23T02:12:29.288Z,34.27
2018-12-23T02:14:56.721Z,36.00
2018-12-23T02:17:24.174Z,30.10
2018-12-23T02:19:51.755Z,21.57
2018-12-23T02:22:19.275Z,28.33
2018-12-23T02:24:46.806Z,25.30
2018-12-23T02:27:14.218Z,23.90
2018-12-23T02:29:41.659Z,26.77
2018-12-23T02:32:09.114Z,29.00
2018-12-23T02:34:36.609Z,31.23
2018-12-23T02:37:04.038Z,27.93
2018-12-23T02:39:31.572Z,26.33
2018-12-23T02:41:59.019Z,28.93
2018-12-23T02:44:26.455Z,28.57
2018-12-23T02:46:53.894Z,29.37
2018-12-23T02:49:21.314Z,34.73
2018-12-23T02:51:48.766Z,33.47
2018-12-23T02:54:16.307Z,28.53
2018-12-23T02:56:43.763Z,29.47
2018-12-23T02:59:11.187Z,35.27
2018-12-23T03:01:38.639Z,33.77
2018-12-23T03:04:06.234Z,35.43
2018-12-23T03:06:33.719Z,25.97
2018-12-23T03:09:01.192Z,30.83
2018-12-23T03:11:28.655Z,32.03
2018-12-23T03:13:56.187Z,24.50
2018-12-23T03:16:23.628Z,33.83
2018-12-23T03:18:51.071Z,26.30
2018-12-23T03:21:18.492Z,27.00
2018-12-23T03:23:45.929Z,28.17
2018-12-23T03:26:13.355Z,32.07
2018-12-23T03:28:40.803Z,28.87
2018-12-23T03:31:08.232Z,38.40
2018-12-23T03:33:35.775Z,33.70
2018-12-23T03:36:03.201Z,30.87
2018-12-23T03:38:30.651Z,31.43
2018-12-23T03:40:58.063Z,30.20
2018-12-23T03:43:25.495Z,30.17
2018-12-23T03:45:52.926Z,38.50
2018-12-23T03:48:20.589Z,34.53
2018-12-23T03:50:48.031Z,32.80
2018-12-23T03:53:15.535Z,32.27
2018-12-23T03:55:42.992Z,35.80
2018-12-23T03:58:10.439Z,31.43
2018-12-23T04:00:37.864Z,35.33
2018-12-23T04:03:05.344Z,35.23
2018-12-23T04:05:32.835Z,37.97
2018-12-23T04:08:00.299Z,31.17
2018-12-23T04:10:27.768Z,34.33
2018-12-23T04:12:55.179Z,32.57
2018-12-23T04:15:22.622Z,38.80
2018-12-23T04:17:50.046Z,39.13
2018-12-23T04:20:17.509Z,35.53
2018-12-23T04:22:45.085Z,38.20
2018-12-23T04:25:12.523Z,38.90
2018-12-23T04:27:39.939Z,34.70
2018-12-23T04:30:07.530Z,35.17
2018-12-23T04:32:34.947Z,31.80
2018-12-23T04:35:02.391Z,34.17
2018-12-23T04:37:29.811Z,34.70
2018-12-23T04:39:57.259Z,31.13
2018-12-23T04:42:24.705Z,29.27
2018-12-23T04:44:52.131Z,38.50
2018-12-23T04:47:19.618Z,28.67
2018-12-23T04:49:47.046Z,29.70
2018-12-23T04:52:14.488Z,28.83
2018-12-23T04:54:41.908Z,34.53
2018-12-23T04:57:09.353Z,35.90
2018-12-23T04:59:36.758Z,32.97
2018-12-23T05:02:04.202Z,26.90
2018-12-23T05:04:31.844Z,25.73
2018-12-23T05:06:59.280Z,30.00
2018-12-23T05:09:26.838Z,23.70
2018-12-23T05:11:54.300Z,29.47
2018-12-23T05:14:21.741Z,29.80
2018-12-23T05:16:49.196Z,25.90
2018-12-23T05:19:16.604Z,30.23
2018-12-23T05:21:44.047Z,33.80
2018-12-23T05:24:11.573Z,33.57
2018-12-23T05:26:39.025Z,30.77
2018-12-23T05:29:06.540Z,36.70
2018-12-23T05:31:34.022Z,30.67
2018-12-23T05:34:01.522Z,26.90
2018-12-23T05:36:29.169Z,34.80
2018-12-23T05:38:56.628Z,30.47
2018-12-23T05:41:24.250Z,28.73
2018-12-23T05:43:51.752Z,33.80
2018-12-23T05:46:19.175Z,30.30
2018-12-23T05:48:46.706Z,34.37
2018-12-23T05:51:14.122Z,25.70
2018-12-23T05:53:41.579Z,29.67
2018-12-23T05:56:09.024Z,31.93
2018-12-23T05:58:36.455Z,26.30
2018-12-23T06:01:03.877Z,23.90
2018-12-23T06:03:31.317Z,32.97
2018-12-23T06:05:58.744Z,29.73
2018-12-23T06:08:26.174Z,27.07
2018-12-23T06:10:53.606Z,33.03
2018-12-23T06:13:21.035Z,32.57
2018-12-23T06:15:48.478Z,35.83
2018-12-23T06:18:15.911Z,26.77
2018-12-23T06:20:43.427Z,33.63
2018-12-23T06:23:10.850Z,31.03
2018-12-23T06:25:38.391Z,36.27
2018-12-23T06:28:05.820Z,28.67
2018-12-23T06:30:33.251Z,30.80
2018-12-23T06:33:00.688Z,28.00
2018-12-23T06:35:28.135Z,30.23
2018-12-23T06:37:55.573Z,32.10
2018-12-23T06:40:23.014Z,22.23
2018-12-23T06:42:50.443Z,26.00
2018-12-23T06:45:17.892Z,27.87
2018-12-23T06:47:45.327Z,25.07
2018-12-23T06:50:12.759Z,26.30
2018-12-23T06:52:40.173Z,30.37
2018-12-23T06:55:07.634Z,26.37
2018-12-23T06:57:35.081Z,25.23
2018-12-23T07:00:02.613Z,30.80
2018-12-23T07:02:30.034Z,29.37
2018-12-23T07:04:57.490Z,24.57
2018-12-23T07:07:25.091Z,27.40
2018-12-23T07:09:52.545Z,25.90
2018-12-23T07:12:19.996Z,24.50
2018-12-23T07:14:47.708Z,20.40
2018-12-23T07:17:15.165Z,25.03
2018-12-23T07:19:42.577Z,32.73
2018-12-23T07:22:10.124Z,27.90
2018-12-23T07:24:37.558Z,25.57
2018-12-23T07:27:05.011Z,22.80
2018-12-23T07:29:32.468Z,28.20
2018-12-23T07:31:59.908Z,26.43
2018-12-23T07:34:27.330Z,21.47
2018-12-23T07:36:54.766Z,23.90
2018-12-23T07:39:22.179Z,26.37
2018-12-23T07:41:49.779Z,27.60
2018-12-23T07:44:17.217Z,80.23
2018-12-23T07:46:44.889Z,25.07
2018-12-23T07:49:12.334Z,22.20
2018-12-23T07:51:39.801Z,28.10
2018-12-23T07:54:07.228Z,19.83
2018-12-23T07:56:34.657Z,22.93
2018-12-23T07:59:02.075Z,25.40
2018-12-23T08:01:29.683Z,21.57
2018-12-23T08:03:57.111Z,18.10
2018-12-23T08:06:24.545Z,24.93
2018-12-23T08:08:52.019Z,23.60
2018-12-23T08:11:19.440Z,23.37
2018-12-23T08:13:46.889Z,24.80
2018-12-23T08:16:14.478Z,20.23
2018-12-23T08:18:41.953Z,21.83
2018-12-23T08:21:09.398Z,94.57
2018-12-23T08:23:36.847Z,26.20
2018-12-23T08:26:04.269Z,22.03
2018-12-23T08:28:31.758Z,23.10
2018-12-23T08:30:59.188Z,19.00
2018-12-23T08:33:26.647Z,25.90
2018-12-23T08:35:54.073Z,22.57
2018-12-23T08:38:21.501Z,23.47
2018-12-23T08:40:48.958Z,28.97
2018-12-23T08:43:16.415Z,20.63
2018-12-23T08:45:44.072Z,19.13
2018-12-23T08:48:11.526Z,26.03
2018-12-23T08:50:39.078Z,23.23
2018-12-23T08:53:06.499Z,26.03
2018-12-23T08:55:34.016Z,28.07
2018-12-23T08:58:01.435Z,27.43
2018-12-23T09:00:28.855Z,22.77
2018-12-23T09:02:56.316Z,22.67
2018-12-23T09:05:23.748Z,22.87
2018-12-23T09:07:53.141Z,25.33
2018-12-23T09:10:20.830Z,25.73
2018-12-23T09:12:48.248Z,25.07
2018-12-23T09:15:15.699Z,23.60
2018-12-23T09:17:43.484Z,20.67
2018-12-23T09:20:10.914Z,24.23
2018-12-23T09:22:38.349Z,24.93
2018-12-23T09:25:05.796Z,22.40
2018-12-23T09:27:33.250Z,21.50
2018-12-23T09:30:00.663Z,33.43
2018-12-23T09:32:28.127Z,27.07
2018-12-23T09:34:55.525Z,20.60
2018-12-23T09:37:22.997Z,21.47
2018-12-23T09:39:50.413Z,24.77
2018-12-23T09:42:17.867Z,21.37
2018-12-23T09:44:45.297Z,23.60
2018-12-23T09:47:12.833Z,21.47
2018-12-23T09:49:40.273Z,22.97
2018-12-23T09:52:07.721Z,26.33
2018-12-23T09:54:35.159Z,18.80
2018-12-23T09:57:02.603Z,20.93
2018-12-23T09:59:30.036Z,21.83
2018-12-23T10:01:57.459Z,18.30
2018-12-23T10:04:24.904Z,24.13
2018-12-23T10:06:52.505Z,26.37
2018-12-23T10:09:19.960Z,23.50
2018-12-23T10:11:47.388Z,17.80
2018-12-23T10:14:14.834Z,21.37
2018-12-23T10:16:42.461Z,18.40
2018-12-23T10:19:10.271Z,26.80
2018-12-23T10:21:37.829Z,20.83
2018-12-23T10:24:05.301Z,20.43
2018-12-23T10:26:32.754Z,21.40
2018-12-23T10:29:00.201Z,18.07
2018-12-23T10:31:27.619Z,19.67
2018-12-23T10:33:55.859Z,20.13
2018-12-23T10:36:23.288Z,21.17
2018-12-23T10:38:50.743Z,27.90
2018-12-23T10:41:18.187Z,19.00
2018-12-23T10:43:45.840Z,22.83
2018-12-23T10:46:13.254Z,23.40
2018-12-23T10:48:40.686Z,17.03
2018-12-23T10:51:08.312Z,17.63
2018-12-23T10:53:35.763Z,22.73
2018-12-23T10:56:03.184Z,17.53
2018-12-23T10:58:30.614Z,17.77
2018-12-23T11:00:58.056Z,19.87
2018-12-23T11:03:25.586Z,22.97
2018-12-23T11:05:53.048Z,17.37
2018-12-23T11:08:26.906Z,21.00
2018-12-23T11:10:49.967Z,25.77
2018-12-23T11:13:21.608Z,20.23
2018-12-23T11:15:49.240Z,17.63
2018-12-23T11:18:16.661Z,23.30
2018-12-23T11:20:44.110Z,21.33
2018-12-23T11:23:11.549Z,20.90
2018-12-23T11:25:39.040Z,22.73
2018-12-23T11:28:06.471Z,16.07
2018-12-23T11:30:33.947Z,15.80
2018-12-23T11:33:01.390Z,17.00
2018-12-23T11:35:28.850Z,17.77
2018-12-23T11:37:56.320Z,19.27
2018-12-23T11:40:26.702Z,16.77
2018-12-23T11:42:54.146Z,18.13
2018-12-23T11:45:21.599Z,20.83
2018-12-23T11:47:49.351Z,19.10
2018-12-23T11:50:16.788Z,18.20
2018-12-23T11:52:44.251Z,15.63
2018-12-23T11:55:11.822Z,15.20
2018-12-23T11:57:39.503Z,20.40
2018-12-23T12:00:07.040Z,20.47
2018-12-23T12:02:34.486Z,21.73
2018-12-23T12:05:01.934Z,17.03
2018-12-23T12:07:29.379Z,16.90
2018-12-23T12:09:56.925Z,17.70
2018-12-23T12:12:24.523Z,18.47
2018-12-23T12:14:51.959Z,13.10
2018-12-23T12:17:19.409Z,14.33
2018-12-23T12:19:46.861Z,14.63
2018-12-23T12:22:14.324Z,12.70
2018-12-23T12:24:41.772Z,15.03
2018-12-23T12:27:09.217Z,11.93
2018-12-23T12:29:36.663Z,14.47
2018-12-23T12:32:04.150Z,15.73
2018-12-23T12:34:31.617Z,12.63
2018-12-23T12:36:59.045Z,12.37
2018-12-23T12:39:26.584Z,10.43
2018-12-23T12:41:54.035Z,11.83
2018-12-23T12:44:21.503Z,14.07
2018-12-23T12:46:48.927Z,12.10
2018-12-23T12:49:16.495Z,11.43
2018-12-23T12:51:43.952Z,9.17
2018-12-23T12:54:11.412Z,13.27
2018-12-23T12:56:38.847Z,10.87
2018-12-23T12:59:06.412Z,13.73
2018-12-23T13:01:33.813Z,9.87
2018-12-23T13:04:01.267Z,12.20
2018-12-23T13:06:28.713Z,13.93
2018-12-23T13:09:00.471Z,10.63
2018-12-23T13:11:25.749Z,13.23
2018-12-23T13:13:53.197Z,10.53
2018-12-23T13:16:20.649Z,9.70
2018-12-23T13:18:48.162Z,10.33
2018-12-23T13:21:15.808Z,10.03
2018-12-23T13:23:43.249Z,11.27
2018-12-23T13:26:10.725Z,9.60
2018-12-23T13:28:38.165Z,9.23
2018-12-23T13:31:05.668Z,10.43
2018-12-23T13:33:33.155Z,10.90
2018-12-23T13:36:00.672Z,10.40
2018-12-23T13:38:28.156Z,10.77
2018-12-23T13:40:59.662Z,7.97
2018-12-23T13:43:39.007Z,8.97
2018-12-23T13:49:56.173Z,12.33
2018-12-23T13:52:37.075Z,10.87
2018-12-23T13:55:11.266Z,10.93
2018-12-23T13:58:07.523Z,10.07
2018-12-23T14:00:54.128Z,12.27
2018-12-23T14:03:28.359Z,11.47
2018-12-23T14:06:11.861Z,9.93
2018-12-23T14:08:49.877Z,9.90
2018-12-23T14:11:39.894Z,9.90
2018-12-23T14:14:08.448Z,12.23
2018-12-23T14:16:37.062Z,12.83
2018-12-23T14:19:05.671Z,10.07
2018-12-23T14:21:34.197Z,13.03
2018-12-23T14:24:02.757Z,14.73
2018-12-23T14:26:31.359Z,21.37
2018-12-23T14:29:00.135Z,10.83
2018-12-23T14:31:28.653Z,12.37
2018-12-23T14:33:57.761Z,13.37
2018-12-23T14:36:26.322Z,11.93
2018-12-23T14:38:55.628Z,12.57
2018-12-23T14:41:24.245Z,11.83
2018-12-23T14:43:52.886Z,11.77
2018-12-23T14:46:21.509Z,11.77
2018-12-23T14:48:50.082Z,12.17
2018-12-23T14:51:18.618Z,13.07
2018-12-23T14:53:47.171Z,9.77
2018-12-23T14:56:15.790Z,10.83
2018-12-23T14:58:44.437Z,10.97
2018-12-23T15:01:13.100Z,9.17
2018-12-23T15:03:41.658Z,10.63
2018-12-23T15:06:10.302Z,11.77
2018-12-23T15:08:38.852Z,7.47
2018-12-23T15:11:07.437Z,11.23
2018-12-23T15:13:36.115Z,9.37
2018-12-23T15:16:04.717Z,5.73
2018-12-23T15:18:34.404Z,8.07
2018-12-23T15:21:03.134Z,7.50
2018-12-23T15:23:31.646Z,9.53
2018-12-23T15:26:00.355Z,10.43
2018-12-23T15:28:28.948Z,9.27
2018-12-23T15:30:57.590Z,9.17
2018-12-23T15:33:26.173Z,10.40
2018-12-23T15:35:54.833Z,8.50
2018-12-23T15:38:23.391Z,8.47
2018-12-23T15:40:51.943Z,9.03
2018-12-23T15:43:20.462Z,8.97
2018-12-23T15:45:49.180Z,28.67
2018-12-23T15:48:17.783Z,17.83
2018-12-23T15:50:46.558Z,6.33
2018-12-23T15:53:15.126Z,84.53
2018-12-23T15:55:43.656Z,18.10
2018-12-23T15:58:12.275Z,9.27
2018-12-23T16:00:44.057Z,7.33
2018-12-23T16:03:12.774Z,5.83
2018-12-23T16:05:41.378Z,6.57
2018-12-23T16:08:09.944Z,7.73
2018-12-23T16:10:38.503Z,8.00
2018-12-23T16:13:07.057Z,8.00
2018-12-23T16:15:35.570Z,9.23
2018-12-23T16:18:04.186Z,6.07
2018-12-23T16:20:32.872Z,5.60
2018-12-23T16:23:01.583Z,5.90
2018-12-23T16:25:30.241Z,8.77
2018-12-23T16:27:58.859Z,6.70
2018-12-23T16:30:27.481Z,6.70
2018-12-23T16:32:56.149Z,5.33
2018-12-23T16:35:24.833Z,5.73
2018-12-23T16:37:53.358Z,7.57
2018-12-23T16:40:21.927Z,6.07
2018-12-23T16:42:50.514Z,7.03
2018-12-23T16:45:19.162Z,6.43
2018-12-23T16:47:47.688Z,7.47
2018-12-23T16:50:16.471Z,7.07
2018-12-23T16:52:45.298Z,5.67
2018-12-23T16:55:13.913Z,5.40
2018-12-23T16:57:42.507Z,6.37
2018-12-23T17:00:13.257Z,7.20
2018-12-23T17:02:41.848Z,6.03
2018-12-23T17:05:10.562Z,7.73
2018-12-23T17:07:39.094Z,7.87
2018-12-23T17:10:08.622Z,6.30
2018-12-23T17:12:37.237Z,6.70
2018-12-23T17:15:06.727Z,8.30
2018-12-23T17:17:35.316Z,8.27
2018-12-23T17:20:05.447Z,8.57
2018-12-23T17:22:34.217Z,7.30
2018-12-23T17:25:02.999Z,9.90
2018-12-23T17:27:32.000Z,8.60
2018-12-23T17:30:00.554Z,8.77
2018-12-23T17:32:29.218Z,10.03
2018-12-23T17:34:57.853Z,7.70
2018-12-23T17:37:26.503Z,9.37
2018-12-23T17:39:55.248Z,8.63
2018-12-23T17:42:23.802Z,9.50
2018-12-23T17:44:52.323Z,9.23
2018-12-23T17:47:20.938Z,8.77
2018-12-23T17:49:49.567Z,9.30
2018-12-23T17:52:23.153Z,10.13
2018-12-23T17:54:48.487Z,10.50
2018-12-23T17:57:17.061Z,10.87
2018-12-23T17:59:45.589Z,10.77
2018-12-23T18:02:14.230Z,11.70
2018-12-23T18:04:46.011Z,12.10
2018-12-23T18:07:14.582Z,12.63
2018-12-23T18:09:44.294Z,13.37
2018-12-23T18:12:12.952Z,11.87
2018-12-23T18:14:41.472Z,12.50
2018-12-23T18:17:10.249Z,12.93
2018-12-23T18:19:38.809Z,13.03
2018-12-23T18:22:07.360Z,12.07
2018-12-23T18:24:36.085Z,13.50
2018-12-23T18:27:04.701Z,13.07
2018-12-23T18:29:33.269Z,14.40
2018-12-23T18:32:01.993Z,13.30
2018-12-23T18:34:30.588Z,12.93
2018-12-23T18:36:59.184Z,13.23
2018-12-23T18:39:27.772Z,14.63
2018-12-23T18:41:56.323Z,17.53
2018-12-23T18:44:24.855Z,15.97
2018-12-23T18:46:53.405Z,15.93
2018-12-23T18:49:21.968Z,17.17
2018-12-23T18:51:50.590Z,17.87
2018-12-23T18:54:19.153Z,23.30
2018-12-23T18:56:47.724Z,18.37
2018-12-23T18:59:16.425Z,20.80
2018-12-23T19:01:45.139Z,19.43
2018-12-23T19:04:13.686Z,19.60
2018-12-23T19:06:42.255Z,18.83
2018-12-23T19:09:10.972Z,19.67
2018-12-23T19:11:51.663Z,17.47
2018-12-23T19:14:39.837Z,16.43
2018-12-23T19:17:23.617Z,15.77
2018-12-23T19:20:25.185Z,22.23
2018-12-23T19:23:02.347Z,15.07
2018-12-23T19:25:40.890Z,14.93
2018-12-23T19:28:18.486Z,12.93
2018-12-23T19:31:01.850Z,12.63
2018-12-23T19:33:42.104Z,15.20
2018-12-23T19:36:25.605Z,13.53
2018-12-23T19:39:12.193Z,12.67
2018-12-23T19:42:01.691Z,11.47
2018-12-23T19:44:36.164Z,12.17
2018-12-23T19:47:32.429Z,12.87
2018-12-23T19:50:20.982Z,11.23
2018-12-23T19:53:13.751Z,11.80
2018-12-23T19:56:03.263Z,12.03
2018-12-23T19:58:43.624Z,12.33
2018-12-23T20:01:18.064Z,11.50
2018-12-23T20:03:56.646Z,12.23
2018-12-23T20:06:44.600Z,12.43
2018-12-23T20:09:22.018Z,9.67
2018-12-23T20:12:02.715Z,8.63
2018-12-23T20:14:40.239Z,7.77
2018-12-23T20:17:27.173Z,7.10
2018-12-23T20:20:32.417Z,6.97
2018-12-23T20:23:03.999Z,7.23
2018-12-23T20:25:44.657Z,8.07
2018-12-23T20:28:36.699Z,8.03
2018-12-23T20:31:24.661Z,8.37
2018-12-23T20:34:08.302Z,8.50
2018-12-23T20:36:54.310Z,7.60
2018-12-23T20:39:25.892Z,10.10
2018-12-23T20:42:23.189Z,12.63
2018-12-23T20:45:26.793Z,12.13
2018-12-23T20:48:01.386Z,12.03
2018-12-23T20:50:44.957Z,10.47
2018-12-23T20:53:37.103Z,10.87
2018-12-23T20:56:08.669Z,9.90
2018-12-23T20:58:45.919Z,8.30
2018-12-23T21:01:38.863Z,8.17
2018-12-23T21:04:22.135Z,7.00
2018-12-23T21:07:09.151Z,6.30
2018-12-23T21:09:46.679Z,6.23
2018-12-23T21:12:32.810Z,5.57
2018-12-23T21:15:07.344Z,6.03
2018-12-23T21:17:41.847Z,5.33
2018-12-23T21:20:16.109Z,5.23
2018-12-23T21:22:59.145Z,5.53
2018-12-23T21:25:48.677Z,6.60
2018-12-23T21:28:23.194Z,5.70
2018-12-23T21:30:57.792Z,4.80
2018-12-23T21:33:32.111Z,6.00
2018-12-23T21:36:21.810Z,4.47
2018-12-23T21:39:05.138Z,4.17
2018-12-23T21:41:36.706Z,4.53
2018-12-23T21:44:08.324Z,4.77
2018-12-23T21:47:05.075Z,3.30
2018-12-23T21:49:58.457Z,6.07
2018-12-23T21:53:00.867Z,3.27
2018-12-23T21:55:44.571Z,4.23
2018-12-23T21:58:19.077Z,5.03
2018-12-23T22:01:02.931Z,4.63
2018-12-23T22:03:40.327Z,8.63
2018-12-23T22:06:31.652Z,4.83
2018-12-23T22:09:24.664Z,5.17
2018-12-23T22:12:01.778Z,6.00
2018-12-23T22:14:30.316Z,7.27
2018-12-23T22:16:58.935Z,5.73
2018-12-23T22:19:27.549Z,6.00
2018-12-23T22:21:56.140Z,6.87
2018-12-23T22:24:24.670Z,6.27
2018-12-23T22:26:55.497Z,8.43
2018-12-23T22:29:23.728Z,9.70
2018-12-23T22:31:52.280Z,9.47
2018-12-23T22:34:20.816Z,11.10
2018-12-23T22:36:49.537Z,10.50
2018-12-23T22:39:18.046Z,9.93
2018-12-23T22:41:46.620Z,8.63
2018-12-23T22:44:15.135Z,8.10
2018-12-23T22:46:43.766Z,8.53
2018-12-23T22:49:12.304Z,8.30
2018-12-23T22:51:40.833Z,8.10
2018-12-23T22:54:09.364Z,8.27
2018-12-23T22:56:37.890Z,7.47
2018-12-23T22:59:06.450Z,8.10
2018-12-23T23:01:35.059Z,7.87
2018-12-23T23:04:03.615Z,8.10
2018-12-23T23:06:32.120Z,6.83
2018-12-23T23:09:00.795Z,7.37
2018-12-23T23:11:29.334Z,7.37
2018-12-23T23:13:57.872Z,9.33
2018-12-23T23:16:26.416Z,6.87
2018-12-23T23:18:58.006Z,7.23
2018-12-23T23:21:26.557Z,6.43
2018-12-23T23:23:55.110Z,6.13
2018-12-23T23:26:23.658Z,6.57
2018-12-23T23:28:52.259Z,5.83
2018-12-23T23:31:20.868Z,5.80
2018-12-23T23:33:49.543Z,6.03
2018-12-23T23:36:18.248Z,6.33
2018-12-23T23:38:46.791Z,6.20
2018-12-23T23:41:15.383Z,7.00
2018-12-23T23:43:43.916Z,6.50
2018-12-23T23:46:12.627Z,6.13
2018-12-23T23:48:41.145Z,5.83
2018-12-23T23:51:09.693Z,7.13
2018-12-23T23:53:38.220Z,5.27
2018-12-23T23:56:06.853Z,7.77
2018-12-23T23:58:35.371Z,4.80
